Time;durP1;ratioP1;P1;durP2;ratioP2;P2;SDS_P1;SDS_P2;PMS_P1;PMS_P2;Temp;Humidity;BMP_temperature;BMP_pressure;BME280_temperature;BME280_humidity;BME280_pressure;Samples;Min_cycle;Max_cycle;Signal;HPM_P1;HPM_P2
2024/02/09 00:00:19;;;;;;;14.38;6.75;;;;;;;8.57;100.00;98733.91;5069564;28;20048;-40
2024/02/09 00:02:45;;;;;;;19.70;7.32;;;;;;;8.56;100.00;98726.91;5070085;28;20020;-40
2024/02/09 00:05:15;;;;;;;15.02;7.65;;;;;;;8.63;100.00;98737.41;5069168;28;20384;-40
2024/02/09 00:07:48;;;;;;;13.05;6.70;;;;;;;8.62;100.00;98730.41;5056833;28;20105;-40
2024/02/09 00:10:18;;;;;;;13.50;6.45;;;;;;;8.65;100.00;98727.97;5056220;28;20079;-40
2024/02/09 00:12:47;;;;;;;15.40;6.90;;;;;;;8.59;100.00;98712.91;5055843;28;20454;-40
2024/02/09 00:15:13;;;;;;;13.70;6.50;;;;;;;8.64;100.00;98714.78;5056820;28;20458;-40
2024/02/09 00:17:38;;;;;;;15.95;6.10;;;;;;;8.52;100.00;98696.19;5056884;28;20048;-40
2024/02/09 00:20:07;;;;;;;14.17;5.87;;;;;;;8.69;100.00;98717.47;5055976;28;20028;-40
2024/02/09 00:22:37;;;;;;;12.60;6.32;;;;;;;8.70;100.00;98709.13;5056468;28;20094;-40
2024/02/09 00:25:08;;;;;;;16.42;5.93;;;;;;;8.75;100.00;98701.03;5055896;28;20469;-40
2024/02/09 00:27:33;;;;;;;14.63;5.60;;;;;;;8.69;100.00;98691.34;5056424;28;20017;-40
2024/02/09 00:29:58;;;;;;;13.00;5.83;;;;;;;8.58;100.00;98670.06;5056117;28;20091;-40
2024/02/09 00:32:24;;;;;;;9.87;5.47;;;;;;;8.65;100.00;98676.00;5055591;28;20458;-40
2024/02/09 00:34:51;;;;;;;14.88;5.75;;;;;;;8.65;100.00;98670.59;5055653;28;20318;-40
2024/02/09 00:37:16;;;;;;;;;;;;;;;8.75;100.00;98668.69;5056973;28;20045;-40
2024/02/09 00:39:42;;;;;;;11.82;5.68;;;;;;;8.74;100.00;98668.97;5055599;28;20316;-40
2024/02/09 00:42:12;;;;;;;13.50;6.05;;;;;;;8.76;100.00;98674.88;5055877;28;20075;-40
2024/02/09 00:44:38;;;;;;;14.10;5.72;;;;;;;8.79;100.00;98674.34;5055473;28;20021;-40
2024/02/09 00:47:04;;;;;;;9.80;4.88;;;;;;;8.73;100.00;98665.44;5056352;28;20111;-40
2024/02/09 00:49:29;;;;;;;14.57;5.28;;;;;;;8.73;100.00;98654.66;5055491;28;20516;-40
2024/02/09 00:51:56;;;;;;;15.55;5.47;;;;;;;8.76;100.00;98647.94;5056260;28;20024;-40
2024/02/09 00:54:21;;;;;;;;;;;;;;;8.79;100.00;98657.38;5055396;28;20036;-40
2024/02/09 00:56:47;;;;;;;12.40;5.22;;;;;;;8.70;100.00;98638.25;5055610;28;19931;-40
2024/02/09 00:59:13;;;;;;;13.60;5.68;;;;;;;8.70;100.00;98620.19;5054944;28;20047;-40
2024/02/09 01:01:38;;;;;;;15.15;5.28;;;;;;;8.81;100.00;98639.03;5056036;28;20025;-40
2024/02/09 01:04:06;;;;;;;12.70;5.63;;;;;;;8.79;100.00;98635.81;5055170;28;20119;-40
2024/02/09 01:06:34;;;;;;;12.20;5.22;;;;;;;8.77;100.00;98623.41;5055710;28;20036;-40
2024/02/09 01:09:00;;;;;;;10.63;4.80;;;;;;;8.71;100.00;98608.34;5055044;28;20031;-40
2024/02/09 01:11:27;;;;;;;11.05;5.38;;;;;;;8.77;100.00;98612.63;5055403;28;20033;-40
2024/02/09 02:46:29;;;;;;;10.85;4.63;;;;;;;8.73;100.00;98471.44;5053936;28;20024;-40
2024/02/09 03:05:26;;;;;;;8.77;3.97;;;;;;;8.82;100.00;98466.28;5053788;28;20106;-40
2024/02/09 03:07:53;;;;;;;10.82;3.75;;;;;;;8.81;100.00;98453.09;5053165;28;20032;-40
2024/02/09 03:10:22;;;;;;;7.25;4.00;;;;;;;8.81;100.00;98456.59;5052828;28;20025;-40
2024/02/09 03:12:47;;;;;;;6.85;3.83;;;;;;;8.75;100.00;98439.66;5053424;28;20051;-40
2024/02/09 03:15:14;;;;;;;8.32;3.90;;;;;;;8.82;100.00;98455.50;5053073;28;20012;-40
2024/02/09 03:17:41;;;;;;;8.18;4.10;;;;;;;8.75;100.00;98442.34;5053110;28;20048;-40
2024/02/09 03:20:08;;;;;;;7.93;3.42;;;;;;;8.83;100.00;98446.34;5052798;28;20017;-40
2024/02/09 03:22:35;;;;;;;9.88;4.32;;;;;;;8.85;100.00;98444.19;5053151;28;20457;-40
2024/02/09 03:25:02;;;;;;;7.03;3.20;;;;;;;8.84;100.00;98439.06;5053349;28;20150;-40
2024/02/09 03:27:35;;;;;;;8.73;3.60;;;;;;;8.84;100.00;98434.50;5052775;28;20048;-40
2024/02/09 03:30:03;;;;;;;8.82;3.60;;;;;;;8.77;100.00;98417.81;5052698;28;20457;-40
2024/02/09 03:32:30;;;;;;;8.30;3.60;;;;;;;8.71;100.00;98408.94;5052826;28;20480;-40
2024/02/09 03:34:56;;;;;;;6.43;2.95;;;;;;;8.85;100.00;98429.91;5052873;28;20037;-40
2024/02/09 03:37:33;;;;;;;9.40;3.88;;;;;;;8.68;100.00;98400.59;5053001;28;20021;-40
2024/02/09 03:40:02;;;;;;;;;;;;;;;8.90;100.00;98424.47;5053678;28;20124;-40
2024/02/09 03:42:27;;;;;;;7.15;3.20;;;;;;;8.86;100.00;98423.41;5056179;28;19994;-40
2024/02/09 03:44:56;;;;;;;9.68;3.10;;;;;;;8.82;100.00;98417.78;5056991;28;20422;-40
2024/02/09 03:47:24;;;;;;;5.10;2.90;;;;;;;8.85;100.00;98417.22;5056627;28;20526;-40
2024/02/09 03:49:51;;;;;;;9.93;3.10;;;;;;;8.81;100.00;98408.09;5056548;28;20024;-40
2024/02/09 03:52:19;;;;;;;5.80;3.10;;;;;;;8.77;100.00;98402.44;5057402;28;20353;-40
2024/02/09 03:54:45;;;;;;;6.28;3.78;;;;;;;8.86;100.00;98418.03;5056451;28;20037;-40
2024/02/09 03:57:10;;;;;;;6.07;3.10;;;;;;;8.79;100.00;98402.19;5057025;28;20017;-40
2024/02/09 03:59:36;;;;;;;7.17;3.00;;;;;;;8.77;100.00;98401.63;5056422;28;20031;-40
2024/02/09 04:02:04;;;;;;;;;;;;;;;8.90;100.00;98408.31;5056827;28;20377;-40
2024/02/09 04:04:30;;;;;;;6.60;3.00;;;;;;;8.85;100.00;98409.16;5056536;28;19912;-40
2024/02/09 04:06:55;;;;;;;8.38;3.22;;;;;;;8.85;100.00;98397.56;5056534;28;20442;-40
2024/02/09 04:09:20;;;;;;;6.47;2.97;;;;;;;8.84;100.00;98398.66;5056250;28;20415;-40
2024/02/09 04:11:46;;;;;;;5.53;3.00;;;;;;;8.78;100.00;98397.84;5055926;28;20025;-40
2024/02/09 04:14:11;;;;;;;5.90;2.97;;;;;;;8.83;100.00;98399.72;5056026;28;20039;-40
2024/02/09 04:16:38;;;;;;;4.90;2.60;;;;;;;8.85;100.00;98392.16;5056450;28;20263;-40
2024/02/09 04:19:03;;;;;;;5.32;2.80;;;;;;;8.84;100.00;98401.34;5056554;28;20075;-40
2024/02/09 04:21:30;;;;;;;6.13;2.80;;;;;;;8.86;100.00;98393.78;5056362;28;20032;-41
2024/02/09 04:23:56;;;;;;;5.88;2.60;;;;;;;8.79;100.00;98386.00;5056188;28;20025;-40
2024/02/09 04:26:22;;;;;;;5.30;2.90;;;;;;;8.83;100.00;98389.75;5055976;28;20090;-40
2024/02/09 04:28:47;;;;;;;5.35;2.90;;;;;;;8.80;100.00;98384.94;5056363;28;20075;-40
2024/02/09 04:31:13;;;;;;;7.30;2.73;;;;;;;8.86;100.00;98393.78;5056152;28;20369;-40
2024/02/09 04:33:40;;;;;;;5.90;3.00;;;;;;;8.84;100.00;98393.25;5055805;28;20025;-40
2024/02/09 04:36:06;;;;;;;4.22;2.67;;;;;;;8.86;100.00;98399.97;5055873;28;20016;-40
2024/02/09 04:38:31;;;;;;;6.50;3.20;;;;;;;8.86;100.00;98393.78;5055960;28;20067;-40
2024/02/09 04:40:57;;;;;;;7.03;3.10;;;;;;;8.85;100.00;98390.28;5054421;28;20025;-40
2024/02/09 04:43:23;;;;;;;5.77;2.60;;;;;;;8.84;100.00;98388.69;5055900;28;20024;-40
2024/02/09 04:45:49;;;;;;;5.22;2.60;;;;;;;8.91;100.00;98397.25;5055471;28;20028;-40
2024/02/09 04:48:14;;;;;;;4.95;2.90;;;;;;;8.90;100.00;98392.94;5055535;28;20021;-40
2024/02/09 04:50:40;;;;;;;4.30;2.40;;;;;;;8.91;100.00;98391.84;5055338;28;20139;-40
2024/02/09 04:53:05;;;;;;;7.63;2.70;;;;;;;8.91;100.00;98399.94;5055906;28;20021;-40
2024/02/09 04:55:31;;;;;;;5.20;2.80;;;;;;;8.92;100.00;98385.38;5055565;28;20041;-40
2024/02/09 04:57:56;;;;;;;4.40;2.20;;;;;;;8.92;100.00;98379.97;5055925;28;20083;-40
2024/02/09 05:00:21;;;;;;;4.73;2.53;;;;;;;8.92;100.00;98371.09;5055260;28;20389;-40
2024/02/09 05:02:47;;;;;;;4.77;2.80;;;;;;;8.93;100.00;98376.22;5055574;28;20028;-40
2024/02/09 05:05:13;;;;;;;3.67;2.40;;;;;;;8.87;100.00;98363.03;5054870;28;20346;-40
2024/02/09 05:07:38;;;;;;;5.22;2.85;;;;;;;8.93;100.00;98372.69;5055680;28;20251;-40
2024/02/09 05:10:04;;;;;;;5.03;2.45;;;;;;;8.93;100.00;98364.59;5055090;28;20051;-40
2024/02/09 05:12:31;;;;;;;;;;;;;;;8.96;100.00;98366.75;5056000;28;20025;-40
2024/02/09 05:14:57;;;;;;;4.18;2.30;;;;;;;8.89;100.00;98359.00;5054887;28;19917;-40
2024/02/09 05:17:23;;;;;;;4.45;2.05;;;;;;;8.87;100.00;98358.44;5054914;28;20021;-40
2024/02/09 05:19:49;;;;;;;4.40;2.83;;;;;;;8.78;100.00;98338.56;5054873;28;20071;-40
2024/02/09 05:22:15;;;;;;;7.78;2.58;;;;;;;8.94;100.00;98364.34;5054843;28;20098;-40
2024/02/09 05:24:40;;;;;;;4.33;2.57;;;;;;;8.93;100.00;98361.91;5054783;28;20033;-40
2024/02/09 05:27:05;;;;;;;5.77;2.33;;;;;;;8.93;100.00;98354.66;5054820;28;20063;-40
2024/02/09 05:29:31;;;;;;;3.80;2.20;;;;;;;8.92;100.00;98358.41;5054752;28;20025;-40
2024/02/09 05:31:58;;;;;;;5.27;2.07;;;;;;;8.91;100.00;98356.00;5055525;28;20278;-40
2024/02/09 05:34:24;;;;;;;4.80;2.30;;;;;;;8.92;100.00;98349.53;5054753;28;20025;-40
2024/02/09 05:36:54;;;;;;;5.43;2.10;;;;;;;8.91;100.00;98342.53;5054488;28;20028;-40
2024/02/09 05:39:19;;;;;;;4.05;2.70;;;;;;;8.91;100.00;98348.72;5054430;28;20044;-40
2024/02/09 05:41:45;;;;;;;4.80;2.38;;;;;;;8.94;100.00;98347.38;5054454;28;20025;-40
2024/02/09 05:44:11;;;;;;;4.53;2.10;;;;;;;8.94;100.00;98345.47;5054459;28;20048;-40
2024/02/09 05:46:36;;;;;;;;;;;;;;;8.98;100.00;98337.66;5054805;28;20042;-40
2024/02/09 05:49:06;;;;;;;4.82;2.47;;;;;;;8.95;100.00;98339.00;5053957;28;19916;-40
2024/02/09 05:51:32;;;;;;;4.65;2.20;;;;;;;8.95;100.00;98333.59;5054474;28;20025;-40
2024/02/09 05:53:57;;;;;;;5.18;2.47;;;;;;;8.95;100.00;98336.31;5054445;28;20104;-40
2024/02/09 05:56:25;;;;;;;3.60;2.10;;;;;;;8.92;100.00;98334.16;5054821;28;20503;-40
2024/02/09 05:58:52;;;;;;;4.22;2.15;;;;;;;8.94;100.00;98337.41;5054051;28;20027;-40
2024/02/09 06:01:17;;;;;;;4.30;2.25;;;;;;;8.93;100.00;98329.56;5054064;28;20043;-40
2024/02/09 06:03:46;;;;;;;5.50;2.15;;;;;;;8.93;100.00;98335.78;5053983;28;20025;-40
2024/02/09 06:06:16;;;;;;;5.80;2.20;;;;;;;8.92;100.00;98323.38;5054419;28;20047;-40
2024/02/09 06:08:46;;;;;;;3.45;1.90;;;;;;;8.93;100.00;98335.78;5053822;28;20029;-40
2024/02/09 06:11:17;;;;;;;3.40;1.88;;;;;;;8.93;100.00;98329.56;5054111;28;20049;-40
2024/02/09 06:13:47;;;;;;;3.50;1.85;;;;;;;8.83;100.00;98316.97;5054079;28;20021;-40
2024/02/09 06:16:14;;;;;;;5.72;2.05;;;;;;;8.84;100.00;98318.59;5053996;28;20048;-40
2024/02/09 06:18:39;;;;;;;4.35;2.03;;;;;;;8.89;100.00;98334.75;5053756;28;20438;-40
2024/02/09 06:21:05;;;;;;;4.38;2.28;;;;;;;8.82;100.00;98323.47;5053406;28;20056;-40
2024/02/09 06:23:34;;;;;;;2.55;1.58;;;;;;;8.89;100.00;98334.75;5053956;28;20032;-40
2024/02/09 06:26:00;;;;;;;5.38;2.60;;;;;;;8.88;100.00;98329.59;5053501;28;20029;-40
2024/02/09 06:28:25;;;;;;;2.50;1.67;;;;;;;8.91;100.00;98334.44;5054442;28;20071;-40
2024/02/09 06:30:50;;;;;;;5.27;1.80;;;;;;;8.89;100.00;98334.75;5053937;28;20028;-40
2024/02/09 06:33:19;;;;;;;6.57;2.23;;;;;;;8.89;100.00;98340.13;5053546;28;20259;-40
2024/02/09 06:35:45;;;;;;;4.70;1.80;;;;;;;8.80;100.00;98331.03;5053160;28;20365;-40
2024/02/09 06:38:13;;;;;;;;;;;;;;;8.93;100.00;98340.34;5054166;28;20104;-40
2024/02/09 06:40:39;;;;;;;3.75;1.45;;;;;;;8.82;100.00;98331.53;5053313;28;19984;-40
2024/02/09 06:43:05;;;;;;;6.18;2.22;;;;;;;8.87;100.00;98331.50;5053178;28;20327;-40
2024/02/09 06:45:34;;;;;;;6.55;2.20;;;;;;;8.91;100.00;98337.16;5053011;28;20036;-40
2024/02/09 06:47:59;;;;;;;3.67;2.08;;;;;;;8.85;100.00;98332.88;5054143;28;20461;-40
2024/02/09 06:50:24;;;;;;;4.37;2.00;;;;;;;8.96;100.00;98334.41;5053615;28;20100;-40
2024/02/09 06:52:50;;;;;;;6.70;2.23;;;;;;;8.94;100.00;98337.41;5053914;28;20040;-40
2024/02/09 06:55:17;;;;;;;6.30;1.70;;;;;;;8.97;100.00;98336.00;5053539;28;20072;-40
2024/02/09 06:57:44;;;;;;;4.55;2.10;;;;;;;8.98;100.00;98332.25;5053255;28;20556;-40
2024/02/09 07:00:14;;;;;;;6.15;2.03;;;;;;;8.96;100.00;98329.03;5053212;28;20028;-40
2024/02/09 07:02:50;;;;;;;5.57;2.35;;;;;;;8.88;100.00;98308.06;5053462;28;20064;-40
2024/02/09 07:05:19;;;;;;;3.60;2.10;;;;;;;9.00;100.00;98335.47;5053801;28;20404;-40
2024/02/09 07:07:53;;;;;;;4.80;2.10;;;;;;;8.97;100.00;98331.44;5053994;28;20021;-40
2024/02/09 07:10:22;;;;;;;4.90;2.00;;;;;;;8.97;100.00;98336.00;5053724;28;20044;-40
2024/02/09 07:12:48;;;;;;;7.03;2.45;;;;;;;8.93;100.00;98329.56;5053974;28;20039;-40
2024/02/09 07:15:14;;;;;;;3.70;2.10;;;;;;;8.94;100.00;98320.41;5053022;28;20099;-40
2024/02/09 07:17:40;;;;;;;3.75;2.10;;;;;;;9.00;100.00;98332.78;5056137;28;20029;-40
2024/02/09 07:20:07;;;;;;;4.40;2.30;;;;;;;9.00;100.00;98335.47;5057169;28;20399;-40
2024/02/09 07:22:35;;;;;;;5.82;2.42;;;;;;;8.99;100.00;98331.16;5057299;28;20043;-40
2024/02/09 07:25:01;;;;;;;6.72;2.47;;;;;;;9.01;100.00;98348.66;5057789;28;20033;-41
2024/02/09 07:27:26;;;;;;;5.85;2.42;;;;;;;9.01;100.00;98343.25;5057087;28;20029;-40
2024/02/09 07:29:51;;;;;;;5.30;2.00;;;;;;;9.00;100.00;98335.47;5056797;28;20043;-40
2024/02/09 07:32:17;;;;;;;5.73;2.67;;;;;;;8.97;100.00;98322.53;5057244;28;20255;-40
2024/02/09 07:34:42;;;;;;;6.67;2.40;;;;;;;9.03;100.00;98351.88;5056819;28;20369;-40
2024/02/09 07:37:08;;;;;;;4.57;2.17;;;;;;;9.04;100.00;98339.22;5057061;28;20021;-40
2024/02/09 07:39:33;;;;;;;6.22;2.55;;;;;;;8.98;100.00;98327.66;5056928;28;20273;-40
2024/02/09 07:41:59;;;;;;;7.93;2.97;;;;;;;9.07;100.00;98341.31;5056433;28;20024;-40
2024/02/09 07:44:28;;;;;;;;;;;;;;;9.12;100.00;98343.19;5057053;28;20022;-40
2024/02/09 07:46:56;;;;;;;4.43;2.33;;;;;;;9.09;100.00;98336.47;5057397;28;20007;-40
2024/02/09 07:49:26;;;;;;;8.60;3.70;;;;;;;9.06;100.00;98333.53;5056529;28;20027;-40
2024/02/09 07:51:51;;;;;;;5.70;3.08;;;;;;;9.09;100.00;98338.38;5056520;28;20542;-40
2024/02/09 07:54:17;;;;;;;5.90;2.55;;;;;;;9.11;100.00;98344.28;5056142;28;20052;-40
2024/02/09 07:56:42;;;;;;;8.07;2.97;;;;;;;9.12;100.00;98343.19;5056467;28;20091;-40
2024/02/09 07:59:08;;;;;;;9.48;3.75;;;;;;;9.14;100.00;98347.22;5056151;28;20028;-40
2024/02/09 08:01:33;;;;;;;7.43;2.27;;;;;;;9.15;100.00;98342.63;5056469;28;20025;-40
2024/02/09 08:03:59;;;;;;;5.32;2.53;;;;;;;9.16;100.00;98338.84;5056774;28;20024;-40
2024/02/09 08:06:24;;;;;;;5.38;2.90;;;;;;;9.16;100.00;98341.53;5056350;28;20476;-40
2024/02/09 08:08:52;;;;;;;4.68;2.53;;;;;;;9.22;100.00;98345.78;5056728;28;20105;-40
2024/02/09 08:11:22;;;;;;;5.47;2.70;;;;;;;9.22;100.00;98335.00;5056148;28;20021;-40
2024/02/09 08:13:50;;;;;;;4.82;2.42;;;;;;;9.26;100.00;98349.53;5056165;28;20028;-40
2024/02/09 08:16:20;;;;;;;3.67;2.30;;;;;;;9.28;100.00;98348.19;5056547;28;20037;-40
2024/02/09 08:18:46;;;;;;;5.72;2.78;;;;;;;9.31;100.00;98341.41;5055957;28;20020;-40
2024/02/09 08:21:12;;;;;;;8.57;2.92;;;;;;;9.35;100.00;98352.44;5055728;28;20116;-40
2024/02/09 08:23:39;;;;;;;7.88;2.72;;;;;;;9.36;100.00;98354.84;5055678;28;20036;-40
2024/02/09 08:26:04;;;;;;;5.28;2.92;;;;;;;9.38;100.00;98351.88;5056166;28;20032;-40
2024/02/09 08:28:30;;;;;;;5.57;2.42;;;;;;;9.39;100.00;98354.28;5055341;28;20017;-40
2024/02/09 08:30:55;;;;;;;5.15;2.45;;;;;;;9.43;100.00;98352.63;5055797;28;20067;-40
2024/02/09 08:33:23;;;;;;;7.17;2.57;;;;;;;9.46;100.00;98352.03;5056304;28;20024;-40
2024/02/09 08:35:49;;;;;;;7.25;2.58;;;;;;;9.47;100.00;98345.59;5055810;28;20051;-40
2024/02/09 08:38:15;;;;;;;6.32;2.40;;;;;;;9.57;100.00;98355.47;5054675;28;20053;-40
2024/02/09 08:40:40;;;;;;;4.93;2.35;;;;;;;9.62;100.00;98351.91;5055592;28;20331;-40
2024/02/09 08:43:05;;;;;;;4.82;2.20;;;;;;;9.61;100.00;98356.47;5055893;28;20025;-40
2024/02/09 08:45:31;;;;;;;3.57;2.20;;;;;;;9.55;100.00;98342.25;5055535;28;20347;-40
2024/02/09 08:47:56;;;;;;;7.77;2.17;;;;;;;9.61;100.00;98350.28;5056105;28;20186;-40
2024/02/09 08:50:21;;;;;;;7.13;2.57;;;;;;;9.67;100.00;98352.66;5055442;28;20029;-40
2024/02/09 08:52:47;;;;;;;3.50;2.50;;;;;;;9.71;100.00;98353.72;5055709;28;20267;-40
2024/02/09 08:55:12;;;;;;;5.80;2.50;;;;;;;9.75;100.00;98345.81;5055452;28;20202;-40
2024/02/09 08:57:37;;;;;;;6.88;2.40;;;;;;;9.78;100.00;98356.84;5055561;28;20025;-40
2024/02/09 09:00:07;;;;;;;8.83;2.80;;;;;;;9.80;100.00;98362.75;5055910;28;20029;-41
2024/02/09 09:02:32;;;;;;;6.32;2.80;;;;;;;9.86;100.00;98368.09;5055315;28;20454;-41
2024/02/09 09:04:57;;;;;;;7.43;2.60;;;;;;;9.87;100.00;98359.75;5054980;28;20039;-41
2024/02/09 09:07:23;;;;;;;6.43;2.73;;;;;;;9.88;100.00;98355.94;5055791;28;20025;-41
2024/02/09 09:09:48;;;;;;;4.32;2.17;;;;;;;9.86;100.00;98358.16;5055140;28;20369;-40
2024/02/09 09:12:14;;;;;;;5.87;2.30;;;;;;;9.82;100.00;98351.69;5054826;28;20067;-41
2024/02/09 09:14:40;;;;;;;4.63;2.50;;;;;;;9.90;100.00;98359.16;5054933;28;20298;-41
2024/02/09 09:17:05;;;;;;;4.25;2.38;;;;;;;9.91;100.00;98357.28;5055325;28;20361;-48
2024/02/09 09:19:31;;;;;;;7.47;2.53;;;;;;;9.87;100.00;98348.94;5054886;28;20021;-41
2024/02/09 09:21:56;;;;;;;7.67;2.20;;;;;;;9.96;100.00;98358.03;5055222;28;20415;-41
2024/02/09 09:24:22;;;;;;;5.72;2.22;;;;;;;9.97;100.00;98359.63;5054860;28;20477;-41
2024/02/09 09:26:47;;;;;;;4.47;2.10;;;;;;;9.87;100.00;98337.34;5055077;28;20067;-41
2024/02/09 09:29:13;;;;;;;5.00;2.20;;;;;;;9.93;100.00;98347.78;5054838;28;20032;-41
2024/02/09 09:31:39;;;;;;;;;;;;;;;10.05;100.00;98360.88;5055154;28;20342;-41
2024/02/09 09:34:04;;;;;;;4.83;2.00;;;;;;;9.98;100.00;98353.13;5054641;28;20009;-41
2024/02/09 09:36:33;;;;;;;4.73;1.77;;;;;;;10.03;100.00;98361.19;5054907;28;20275;-41
2024/02/09 09:39:05;;;;;;;5.13;1.60;;;;;;;10.09;100.00;98370.00;5053703;28;20028;-40
2024/02/09 09:41:32;;;;;;;3.70;1.52;;;;;;;10.07;100.00;98358.72;5054789;28;20349;-40
2024/02/09 09:43:58;;;;;;;4.47;1.70;;;;;;;10.15;100.00;98359.94;5054143;28;20104;-40
2024/02/09 09:46:27;;;;;;;4.70;1.90;;;;;;;10.14;100.00;98369.16;5055073;28;20029;-41
2024/02/09 09:48:55;;;;;;;5.32;1.90;;;;;;;10.10;100.00;98357.31;5054563;28;20294;-41
2024/02/09 09:51:22;;;;;;;6.30;2.58;;;;;;;10.22;100.00;98373.94;5054816;28;20025;-41
2024/02/09 09:53:52;;;;;;;3.70;1.65;;;;;;;10.14;100.00;98367.25;5054200;28;20025;-40
2024/02/09 09:56:18;;;;;;;4.55;2.08;;;;;;;10.23;100.00;98376.31;5053989;28;20072;-41
2024/02/09 09:58:45;;;;;;;5.40;2.22;;;;;;;10.24;100.00;98377.16;5054457;28;20032;-40
2024/02/09 10:01:11;;;;;;;5.80;1.88;;;;;;;10.29;100.00;98388.72;5054641;28;20330;-41
2024/02/09 10:03:38;;;;;;;5.57;1.85;;;;;;;10.30;100.00;98384.13;5054054;28;20488;-41
2024/02/09 10:06:03;;;;;;;3.72;1.60;;;;;;;10.34;100.00;98387.84;5054314;28;20032;-41
2024/02/09 10:08:30;;;;;;;4.10;2.10;;;;;;;10.31;100.00;98374.94;5053899;28;20361;-41
2024/02/09 10:10:55;;;;;;;4.22;1.70;;;;;;;10.43;100.00;98390.72;5054232;28;20048;-41
2024/02/09 10:13:25;;;;;;;5.63;2.10;;;;;;;10.51;100.00;98395.47;5054210;28;20021;-41
2024/02/09 10:16:03;;;;;;;4.45;2.28;;;;;;;10.56;100.00;98398.13;5053798;28;20283;-41
2024/02/09 10:18:33;;;;;;;4.55;1.63;;;;;;;10.61;100.00;98394.53;5054638;28;20021;-41
2024/02/09 10:20:59;;;;;;;2.35;1.33;;;;;;;10.62;100.00;98390.75;5054313;28;20017;-40
2024/02/09 10:23:28;;;;;;;7.03;1.85;;;;;;;10.70;100.00;98403.63;5053826;28;20025;-40
2024/02/09 10:25:55;;;;;;;6.35;1.80;;;;;;;10.69;100.00;98399.31;5053423;28;20021;-41
2024/02/09 10:28:23;;;;;;;3.03;1.50;;;;;;;10.63;100.00;98390.44;5053662;28;20036;-41
2024/02/09 10:30:48;;;;;;;6.18;1.98;;;;;;;10.67;100.00;98410.38;5053290;28;20028;-41
2024/02/09 10:33:14;;;;;;;5.60;2.30;;;;;;;10.66;100.00;98403.38;5053276;28;20032;-41
2024/02/09 10:35:40;;;;;;;5.03;1.53;;;;;;;10.69;100.00;98402.81;5053460;28;20032;-41
2024/02/09 10:38:05;;;;;;;6.32;1.92;;;;;;;10.70;100.00;98404.41;5053900;28;20013;-41
2024/02/09 10:40:33;;;;;;;5.37;1.70;;;;;;;10.75;100.00;98400.84;5053215;28;20029;-40
2024/02/09 10:42:59;;;;;;;4.97;1.60;;;;;;;10.75;100.00;98400.84;5054017;28;20395;-41
2024/02/09 10:45:25;;;;;;;4.38;1.40;;;;;;;10.75;100.00;98403.53;5053445;28;20074;-41
2024/02/09 10:47:55;;;;;;;3.97;1.70;;;;;;;10.74;100.00;98410.84;5054043;28;20063;-41
2024/02/09 10:50:21;;;;;;;5.57;1.70;;;;;;;10.74;100.00;98410.06;5053239;28;20099;-41
2024/02/09 10:52:50;;;;;;;3.30;1.48;;;;;;;10.64;100.00;98396.66;5053909;28;20556;-41
2024/02/09 10:55:22;;;;;;;4.32;1.60;;;;;;;10.75;100.00;98417.06;5053627;28;20049;-41
2024/02/09 10:57:54;;;;;;;4.57;1.60;;;;;;;10.75;100.00;98417.06;5053316;28;20144;-41
2024/02/09 11:00:19;;;;;;;3.45;1.85;;;;;;;10.72;100.00;98423.84;5053628;28;20465;-41
2024/02/09 11:02:45;;;;;;;2.72;1.50;;;;;;;10.63;100.00;98409.34;5053366;28;20162;-41
2024/02/09 11:05:14;;;;;;;4.85;1.65;;;;;;;10.72;100.00;98423.84;5054042;28;20067;-41
2024/02/09 11:07:41;;;;;;;3.58;1.70;;;;;;;10.70;100.00;98412.53;5053281;28;20049;-41
2024/02/09 11:10:07;;;;;;;4.43;1.90;;;;;;;10.51;100.00;98382.78;5053202;28;20028;-41
2024/02/09 11:12:33;;;;;;;3.05;1.20;;;;;;;10.78;100.00;98416.47;5053538;28;20070;-41
2024/02/09 11:15:20;;;;;;;4.25;1.67;;;;;;;10.73;100.00;98405.72;5053918;28;20060;-40
2024/02/09 11:17:46;;;;;;;5.28;1.83;;;;;;;10.83;100.00;98414.50;5054036;28;20021;-40
2024/02/09 11:20:13;;;;;;;6.38;1.95;;;;;;;10.89;100.00;98423.34;5053172;28;20537;-41
2024/02/09 11:22:40;;;;;;;5.00;1.85;;;;;;;10.88;100.00;98410.09;5053410;28;20382;-41
2024/02/09 11:25:09;;;;;;;4.35;1.67;;;;;;;10.98;100.00;98416.19;5053056;28;20048;-41
2024/02/09 11:27:35;;;;;;;3.13;1.42;;;;;;;11.00;100.00;98419.41;5047960;28;20112;-41
2024/02/09 11:30:01;;;;;;;4.68;1.60;;;;;;;11.09;100.00;98416.84;5032805;28;20029;-41
2024/02/09 11:32:27;;;;;;;4.32;1.67;;;;;;;11.12;100.00;98431.69;5032904;28;20025;-41
2024/02/09 11:34:55;;;;;;;;;;;;;;;11.17;100.00;98420.78;5033518;28;20458;-41
2024/02/09 11:37:20;;;;;;;3.20;1.50;;;;;;;11.13;100.00;98426.00;5033064;28;19917;-41
2024/02/09 11:39:45;;;;;;;5.00;1.57;;;;;;;11.13;100.00;98417.88;5033185;28;20111;-41
2024/02/09 11:42:11;;;;;;;4.23;1.37;;;;;;;11.13;100.00;98427.91;5033151;28;20044;-41
2024/02/09 11:44:37;;;;;;;6.78;2.13;;;;;;;11.14;100.00;98424.88;5032747;28;20033;-41
2024/02/09 11:47:02;;;;;;;;;;;;;;;11.20;100.00;98422.91;5033694;28;20021;-41
2024/02/09 11:49:28;;;;;;;5.68;1.60;;;;;;;11.14;100.00;98434.91;5032572;28;19909;-41
2024/02/09 11:52:03;;;;;;;;;;;;;;;11.17;100.00;98431.59;5033938;28;20029;-41
2024/02/09 11:54:29;;;;;;;6.55;1.83;;;;;;;11.12;100.00;98435.19;5032569;28;19912;-41
2024/02/09 11:56:57;;;;;;;3.67;1.60;;;;;;;11.09;100.00;98435.78;5033204;28;20021;-41
2024/02/09 11:59:24;;;;;;;4.72;1.60;;;;;;;11.08;100.00;98440.38;5033212;28;20097;-40
2024/02/09 12:01:53;;;;;;;4.88;1.67;;;;;;;11.06;100.00;98434.44;5032762;28;20064;-41
2024/02/09 12:04:19;;;;;;;6.10;3.88;;;;;;;11.05;100.00;98432.84;5036373;28;20025;-40
2024/02/09 12:06:44;;;;;;;3.53;1.77;;;;;;;11.02;100.00;98427.22;5037275;28;20346;-39
2024/02/09 12:09:15;;;;;;;4.97;1.50;;;;;;;11.14;100.00;98434.91;5036527;28;20025;-39
2024/02/09 12:11:47;;;;;;;7.55;1.63;;;;;;;11.18;100.00;98434.03;5036835;28;20022;-39
2024/02/09 12:14:12;;;;;;;5.00;1.90;;;;;;;11.24;100.00;98426.63;5036176;28;20021;-39
2024/02/09 12:16:38;;;;;;;6.82;1.90;;;;;;;11.21;100.00;98419.09;5036374;28;20032;-40
2024/02/09 12:19:04;;;;;;;3.38;1.75;;;;;;;11.25;100.00;98425.53;5036214;28;20409;-40
2024/02/09 12:21:29;;;;;;;5.30;1.75;;;;;;;11.32;100.00;98431.34;5036678;28;20041;-40
2024/02/09 12:23:55;;;;;;;6.40;1.90;;;;;;;11.34;100.00;98432.69;5035853;28;20103;-40
2024/02/09 12:26:21;;;;;;;4.53;1.67;;;;;;;11.37;100.00;98420.50;5035797;28;20035;-40
2024/02/09 12:28:47;;;;;;;4.93;1.60;;;;;;;11.38;100.00;98418.59;5036254;28;20030;-40
2024/02/09 12:31:16;;;;;;;;;;;;;;;11.54;100.00;98428.06;5036360;28;20504;-40
2024/02/09 12:33:43;;;;;;;4.03;1.88;;;;;;;11.51;100.00;98429.44;5035806;28;20365;-40
2024/02/09 12:36:09;;;;;;;3.38;1.60;;;;;;;11.48;100.00;98421.91;5036637;28;20456;-40
2024/02/09 12:38:41;;;;;;;4.43;2.05;;;;;;;11.55;100.00;98430.44;5036333;28;20045;-40
2024/02/09 12:41:12;;;;;;;4.25;1.80;;;;;;;11.57;100.00;98433.69;5036599;28;20018;-40
2024/02/09 12:43:38;;;;;;;6.90;1.60;;;;;;;11.58;100.00;98432.56;5035712;28;20409;-40
2024/02/09 12:46:06;;;;;;;6.22;1.90;;;;;;;11.62;100.00;98434.72;5035814;28;20060;-40
2024/02/09 12:48:36;;;;;;;5.80;2.25;;;;;;;11.51;100.00;98413.19;5042214;28;20029;-40
2024/02/09 12:51:04;;;;;;;4.43;2.00;;;;;;;11.70;100.00;98428.59;5055378;28;20025;-40
2024/02/09 12:53:30;;;;;;;4.18;1.65;;;;;;;11.72;100.00;98435.34;5055646;28;20025;-40
2024/02/09 12:55:55;;;;;;;5.17;1.70;;;;;;;11.67;100.00;98424.59;5055414;28;20362;-40
2024/02/09 12:58:21;;;;;;;5.97;1.73;;;;;;;11.66;100.00;98431.06;5055230;28;20297;-40
2024/02/09 13:00:47;;;;;;;4.27;1.67;;;;;;;11.70;100.00;98437.50;5055309;28;20021;-40
2024/02/09 13:03:13;;;;;;;3.70;1.60;;;;;;;11.55;100.00;98416.91;5055796;28;20255;-40
2024/02/09 13:05:39;;;;;;;4.43;1.52;;;;;;;11.66;100.00;98435.69;5055182;28;20472;-40
2024/02/09 13:08:05;;;;;;;4.25;1.67;;;;;;;11.64;100.00;98433.28;5055160;28;20021;-40
2024/02/09 13:10:33;;;;;;;5.78;1.63;;;;;;;11.60;100.00;98429.56;5055086;28;20083;-40
2024/02/09 13:13:06;;;;;;;3.05;1.60;;;;;;;11.60;100.00;98427.66;5055325;28;20048;-40
2024/02/09 13:15:35;;;;;;;5.97;1.58;;;;;;;11.61;100.00;98436.59;5055259;28;20108;-40
2024/02/09 13:18:02;;;;;;;2.97;1.60;;;;;;;11.57;100.00;98427.47;5055700;28;20396;-40
2024/02/09 13:20:27;;;;;;;2.92;1.30;;;;;;;11.63;100.00;98436.31;5054895;28;20029;-40